Lanark, IL (61046)

1:57 AM CDT on September 02, 2015 (GMT -0500)
Carroll County | | Change Station
CLOSE
Current Station
Personal Weather Station
Location: Lanark, IL
Elevation: 879 ft
Nearby Weather Stations

Elev 879 ft 42.10 °N, 89.83 °W | Updated 9 days ago

Clear
Clear
73 °F
Feels Like 73 °F
N
5
Wind Variable Wind from SW
Gusts mph

Today
High -- | Low -- °F
--% Chance of Precip.
Yesterday
High -- | Low -- °F
Precip. -- in
6:25 AM 7:31 PM
Waning Gibbous, 83% visible
Pressure 30.01 in
Visibility 7.0 miles
Clouds Clear
Dew Point 68 °F
Humidity 86%
Rainfall in
Snow Depth Not available.
UV 0 out of 12
Pollen 11.00 out of 12
Air Quality Not available.
Flu Activity Not available.
METAR KSFY 020635Z AUTO 00000KT 7SM CLR 22/20 A3001 RMK AO2 T02170203
Pressure 30.01 in
Visibility 7.0 miles
Clouds Clear
Dew Point 68 °F
Humidity 86%
Rainfall in
Snow Depth Not available.
UV 0 out of 12
Pollen 11.00 out of 12
Air Quality Not available.
Flu Activity Not available.
METAR KSFY 020635Z AUTO 00000KT 7SM CLR 22/20 A3001 RMK AO2 T02170203

10-Day Weather Forecast

×

Almanac

Astronomy

Sep. 02, 2015 Rise Set
Actual Time
Civil Twilight
Nautical Twilight
Astronomical Twilight
Moon
Length of Visible Light
Length of Day
Tomorrow will be .
, % of the Moon is Illuminated

Today's Extremes

State Highs State Lows

Community

WunderPhotos

Upload Photos

1,851,709 photos uploaded!

WunderBlogs® & News

Nearby

Air Quality

  Air Quality AQ Index Pollutant
Not available.

Snow Depth

Station Depth Elevation

Earthquake Activity

City Distance Mag. Time & Date
Minimum magnitude displayed is 2.5.

Coastal Water Temperatures

Place Temperature

Stations

Nearby Weather Stations

Station Location Temp. Windchill Dew Point Humidity Wind Precip. Elev Updated Type